Time;durP1;ratioP1;P1;durP2;ratioP2;P2;SDS_P1;SDS_P2;PMS_P1;PMS_P2;Temp;Humidity;BMP_temperature;BMP_pressure;BME280_temperature;BME280_humidity;BME280_pressure;Samples;Min_cycle;Max_cycle;Signal;HPM_P1;HPM_P2
2024/01/19 00:00:13;;;;;;;;;5.00;4.00;;;;;1.30;81.71;101255.75;5045257;28;11488;-65
2024/01/19 00:02:40;;;;;;;;;1.50;1.00;;;;;1.30;81.50;101253.09;5048461;28;12312;-63
2024/01/19 00:05:07;;;;;;;;;1.00;1.00;;;;;1.32;81.99;101267.06;5049030;28;11545;-65
2024/01/19 00:07:34;;;;;;;;;1.50;1.00;;;;;1.28;82.00;101259.47;5041352;28;12436;-63
2024/01/19 00:10:01;;;;;;;;;1.00;1.00;;;;;1.26;81.75;101262.28;5036005;28;12164;-63
2024/01/19 00:12:28;;;;;;;;;1.25;1.25;;;;;1.21;82.19;101257.31;5039460;28;11534;-66
2024/01/19 00:14:54;;;;;;;;;4.75;2.00;;;;;1.19;82.52;101258.41;5035674;28;11539;-67
2024/01/19 00:17:21;;;;;;;;;1.25;1.25;;;;;1.18;82.07;101265.53;5058073;28;11472;-67
2024/01/19 00:19:47;;;;;;;;;2.50;2.00;;;;;1.19;82.22;101259.25;5048198;28;11485;-67
2024/01/19 00:22:14;;;;;;;;;1.00;1.00;;;;;1.19;81.90;101263.72;5056148;28;11499;-66
2024/01/19 00:24:41;;;;;;;;;1.50;1.00;;;;;1.19;82.04;101266.38;5032274;28;11606;-67
2024/01/19 00:27:07;;;;;;;;;2.50;0.00;;;;;1.18;82.10;101273.50;5034811;28;12545;-67
2024/01/19 00:29:34;;;;;;;;;0.25;0.25;;;;;1.20;82.18;101273.34;5058746;28;11515;-67
2024/01/19 00:32:00;;;;;;;;;3.50;1.00;;;;;1.21;81.91;101272.38;5062491;28;11515;-67
2024/01/19 00:34:27;;;;;;;;;1.50;0.00;;;;;1.24;81.68;101270.31;5032021;28;11555;-67
2024/01/19 00:36:53;;;;;;;;;0.75;0.75;;;;;1.23;81.54;101270.47;5030966;28;11506;-67
2024/01/19 00:39:20;;;;;;;;;0.00;0.00;;;;;1.24;81.46;101280.09;5034624;28;11581;-67
2024/01/19 00:41:47;;;;;;;;;0.00;0.00;;;;;1.24;81.47;101280.09;5046512;28;11482;-66
2024/01/19 00:44:14;;;;;;;;;0.50;0.50;;;;;1.24;81.44;101272.97;5042565;28;11491;-67
2024/01/19 00:46:40;;;;;;;;;1.50;1.00;;;;;1.24;81.64;101277.44;5033854;28;11503;-66
2024/01/19 00:49:07;;;;;;;;;0.00;0.00;;;;;1.21;81.21;101282.97;5048526;28;11493;-64
2024/01/19 00:51:34;;;;;;;;;0.00;0.00;;;;;1.22;81.59;101284.69;5050763;28;11525;-66
2024/01/19 00:54:00;;;;;;;;;0.00;0.00;;;;;1.20;81.54;101287.44;5066934;28;11611;-64
2024/01/19 00:56:27;;;;;;;;;0.00;0.00;;;;;1.18;81.46;101289.41;5051814;28;11492;-65
2024/01/19 00:58:53;;;;;;;;;0.50;0.50;;;;;1.19;81.12;101284.94;5039771;28;11529;-67
2024/01/19 01:01:20;;;;;;;;;0.00;0.00;;;;;1.16;81.20;101293.13;5041442;28;11489;-64
2024/01/19 01:03:48;;;;;;;;;1.00;0.00;;;;;1.15;81.61;101292.28;5047818;28;11622;-67
2024/01/19 01:06:15;;;;;;;;;2.50;0.00;;;;;1.15;81.46;101297.59;5042490;28;11471;-65
2024/01/19 01:08:41;;;;;;;;;1.00;0.25;;;;;1.14;81.42;101292.41;5041664;28;11507;-66
2024/01/19 01:11:08;;;;;;;;;0.00;0.00;;;;;1.13;81.91;101296.00;5048748;28;11622;-67
2024/01/19 01:13:34;;;;;;;;;0.00;0.00;;;;;1.14;81.89;101309.16;5049706;28;11547;-66
2024/01/19 01:16:02;;;;;;;;;1.00;1.00;;;;;1.13;81.95;101299.50;5047155;28;11485;-66
2024/01/19 01:18:28;;;;;;;;;1.00;1.00;;;;;1.12;81.67;101302.28;5042953;28;11477;-67
2024/01/19 01:20:55;;;;;;;;;0.00;0.00;;;;;1.12;81.78;101302.28;5050803;28;11602;-66
2024/01/19 01:23:22;;;;;;;;;0.50;0.50;;;;;1.14;81.88;101305.69;5049115;28;11488;-66
2024/01/19 01:25:49;;;;;;;;;0.25;0.25;;;;;1.14;81.76;101305.69;5037883;28;11491;-67
2024/01/19 01:28:15;;;;;;;;;0.00;0.00;;;;;1.12;81.95;101308.44;5043126;28;11521;-67
2024/01/19 01:30:42;;;;;;;;;1.00;0.25;;;;;1.12;82.25;101305.78;5042949;28;11660;-67
2024/01/19 01:33:08;;;;;;;;;2.50;1.00;;;;;1.13;82.02;101312.75;5033415;28;11503;-67
2024/01/19 01:35:36;;;;;;;;;3.50;0.00;;;;;1.14;82.52;101303.03;5037648;28;11515;-67
2024/01/19 01:38:03;;;;;;;;;0.00;0.00;;;;;1.17;82.27;101308.91;5040189;28;11523;-67
2024/01/19 01:40:30;;;;;;;;;0.25;0.00;;;;;1.17;82.27;101302.75;5044319;28;12179;-67
2024/01/19 01:42:58;;;;;;;;;0.00;0.00;;;;;1.17;81.98;101306.25;5046201;28;11520;-67
2024/01/19 01:45:24;;;;;;;;;4.00;4.00;;;;;1.20;82.12;101311.31;5048718;28;11591;-67
2024/01/19 01:47:51;;;;;;;;;3.00;0.50;;;;;1.22;81.79;101312.06;5041415;28;11465;-68
2024/01/19 01:50:18;;;;;;;;;3.00;1.00;;;;;1.23;81.93;101319.03;5043744;28;11488;-65
2024/01/19 01:52:45;;;;;;;;;2.00;1.50;;;;;1.23;81.98;101321.69;5048148;28;11569;-67
2024/01/19 01:55:13;;;;;;;;;5.50;0.00;;;;;1.24;81.77;101314.56;5042300;28;11495;-67
2024/01/19 01:57:41;;;;;;;;;2.00;1.00;;;;;1.27;81.73;101319.63;5050212;28;11525;-67
2024/01/19 02:00:10;;;;;;;;;2.00;1.00;;;;;1.26;81.63;101314.44;5050047;28;11489;-67
2024/01/19 02:02:37;;;;;;;;;0.50;0.50;;;;;1.30;81.53;101326.47;5048511;28;11656;-67
2024/01/19 02:05:05;;;;;;;;;0.50;0.50;;;;;1.29;81.30;101333.59;5052959;28;11543;-66
2024/01/19 02:07:32;;;;;;;;;1.00;1.00;;;;;1.33;81.28;101336.84;5041808;28;11590;-66
2024/01/19 02:09:59;;;;;;;;;1.00;1.00;;;;;1.37;81.17;101335.66;5039657;28;11495;-67
2024/01/19 02:12:26;;;;;;;;;1.00;1.00;;;;;1.39;80.80;101334.56;5055650;28;12104;-67
2024/01/19 02:14:55;;;;;;;;;0.00;0.00;;;;;1.42;80.79;101344.94;5031843;28;11504;-67
2024/01/19 02:17:23;;;;;;;;;1.00;1.00;;;;;1.42;80.60;101347.59;5037503;28;11498;-67
2024/01/19 02:19:50;;;;;;;;;0.00;0.00;;;;;1.43;80.25;101351.09;5038379;28;11475;-67
2024/01/19 02:22:17;;;;;;;;;0.00;0.00;;;;;1.42;80.20;101346.75;5041261;28;11513;-67
2024/01/19 02:24:43;;;;;;;;;1.00;1.00;;;;;1.41;80.53;101353.00;5049835;28;11587;-66
2024/01/19 02:27:10;;;;;;;;;0.75;0.75;;;;;1.38;80.15;101351.47;5050089;28;12176;-67
2024/01/19 02:29:37;;;;;;;;;0.00;0.00;;;;;1.38;80.30;101347.97;5046741;28;11612;-67
2024/01/19 02:32:03;;;;;;;;;1.75;0.75;;;;;1.36;80.18;101353.38;5038234;28;11590;-66
2024/01/19 02:34:30;;;;;;;;;1.00;0.00;;;;;1.35;80.11;101361.47;5049858;28;11502;-66
2024/01/19 02:36:56;;;;;;;;;0.75;0.75;;;;;1.34;80.29;101360.63;5045553;28;11497;-67
2024/01/19 02:39:23;;;;;;;;;0.50;0.50;;;;;1.35;80.48;101367.59;5047571;28;11473;-67
2024/01/19 02:41:50;;;;;;;;;2.00;2.00;;;;;1.31;80.28;101363.50;5032713;28;11568;-67
2024/01/19 02:44:17;;;;;;;;;0.00;0.00;;;;;1.29;80.17;101375.19;5029999;28;11635;-66
2024/01/19 02:46:44;;;;;;;;;1.00;1.00;;;;;1.27;80.15;101370.03;5033707;28;11485;-67
2024/01/19 02:49:10;;;;;;;;;2.00;1.75;;;;;1.25;80.60;101369.28;5049968;28;12163;-67
2024/01/19 02:51:37;;;;;;;;;1.00;1.00;;;;;1.25;80.40;101379.88;5046963;28;11611;-67
2024/01/19 02:54:03;;;;;;;;;0.50;0.50;;;;;1.26;80.73;101391.34;5045544;28;11521;-67
2024/01/19 02:56:30;;;;;;;;;1.00;1.00;;;;;1.26;80.31;101394.88;5039006;28;11499;-66
2024/01/19 02:58:56;;;;;;;;;2.00;1.50;;;;;1.26;80.42;101394.00;5040223;28;11518;-66
2024/01/19 03:01:23;;;;;;;;;1.25;1.00;;;;;1.18;80.81;101390.16;5044817;28;11636;-67
2024/01/19 03:03:49;;;;;;;;;0.00;0.00;;;;;1.17;80.62;101408.81;5065968;28;11519;-65
2024/01/19 03:06:16;;;;;;;;;4.50;2.00;;;;;1.15;80.71;101410.75;5052528;28;11560;-67
2024/01/19 03:08:43;;;;;;;;;0.00;0.00;;;;;1.20;80.43;101404.13;5052082;28;11629;-67
2024/01/19 03:11:09;;;;;;;;;0.25;0.00;;;;;1.31;80.29;101411.25;5051849;28;11615;-67
2024/01/19 03:13:36;;;;;;;;;0.00;0.00;;;;;1.35;80.46;101402.09;5043424;28;11551;-67
2024/01/19 03:16:07;;;;;;;;;3.00;1.00;;;;;1.40;80.31;101407.88;5060392;28;11582;-66
2024/01/19 03:18:34;;;;;;;;;0.00;0.00;;;;;1.43;80.11;101399.69;5053433;28;11615;-67
2024/01/19 03:21:00;;;;;;;;;0.00;0.00;;;;;1.45;80.10;101408.34;5043526;28;12737;-67
2024/01/19 03:23:27;;;;;;;;;0.50;0.50;;;;;1.47;79.86;101405.59;5041254;28;11522;-66
2024/01/19 03:25:54;;;;;;;;;0.00;0.00;;;;;1.48;79.83;101413.41;5036878;28;11482;-67
2024/01/19 03:28:20;;;;;;;;;2.00;0.00;;;;;1.49;79.82;101412.44;5042438;28;11489;-67
2024/01/19 03:30:47;;;;;;;;;0.00;0.00;;;;;1.48;79.89;101410.75;5051891;28;11545;-66
2024/01/19 03:33:13;;;;;;;;;1.00;0.00;;;;;1.47;79.67;101410.88;5052443;28;11497;-67
2024/01/19 03:35:40;;;;;;;;;1.75;0.00;;;;;1.44;80.03;101406.66;5081225;22;11530;-66
2024/01/19 03:38:07;;;;;;;;;0.00;0.00;;;;;1.39;80.09;101405.34;5063340;28;12305;-66
2024/01/19 03:40:33;;;;;;;;;0.00;0.00;;;;;1.39;80.13;101419.44;5089401;28;11594;-68
2024/01/19 03:43:00;;;;;;;;;0.00;0.00;;;;;1.37;80.05;101421.38;5070267;28;11547;-66
2024/01/19 03:45:27;;;;;;;;;0.00;0.00;;;;;1.35;80.12;101433.91;5065377;28;11604;-67
2024/01/19 03:47:54;;;;;;;;;0.75;0.75;;;;;1.30;80.41;101456.44;5067283;28;11486;-68
2024/01/19 03:50:22;;;;;;;;;0.50;0.50;;;;;1.28;80.94;101458.38;5065291;28;12248;-67
2024/01/19 03:52:48;;;;;;;;;0.75;0.75;;;;;1.13;81.47;101466.53;5072612;28;11515;-67
2024/01/19 03:55:16;;;;;;;;;0.00;0.00;;;;;1.10;82.64;101458.00;5073014;28;11476;-67
2024/01/19 03:57:44;;;;;;;;;1.00;0.00;;;;;1.15;82.85;101453.19;5073010;28;11487;-67
2024/01/19 04:00:11;;;;;;;;;0.00;0.00;;;;;1.15;82.58;101469.09;5059091;28;11480;-67
2024/01/19 04:02:38;;;;;;;;;0.00;0.00;;;;;1.13;83.27;101466.53;5071462;28;11502;-67
2024/01/19 04:05:05;;;;;;;;;0.25;0.25;;;;;1.19;83.15;101460.78;5071656;28;11502;-67
2024/01/19 04:07:32;;;;;;;;;0.00;0.00;;;;;1.20;83.14;101459.81;5072465;28;11583;-66
2024/01/19 04:09:59;;;;;;;;;0.00;0.00;;;;;1.21;83.25;101463.31;5064302;28;11489;-67
2024/01/19 04:12:25;;;;;;;;;0.00;0.00;;;;;1.23;83.59;101466.69;5051091;28;11501;-67
2024/01/19 04:14:52;;;;;;;;;0.75;0.00;;;;;1.24;83.28;101476.34;5052324;28;11519;-67
2024/01/19 04:17:19;;;;;;;;;0.00;0.00;;;;;1.26;83.46;101479.72;5065715;28;11596;-66
2024/01/19 04:19:46;;;;;;;;;0.00;0.00;;;;;1.27;83.56;101491.19;5066353;28;11481;-67
2024/01/19 04:22:13;;;;;;;;;0.00;0.00;;;;;1.29;83.35;101483.94;5052154;28;11553;-66
2024/01/19 04:24:39;;;;;;;;;0.00;0.00;;;;;1.26;83.44;101492.13;5068797;28;12183;-68
2024/01/19 04:27:06;;;;;;;;;0.00;0.00;;;;;1.23;83.08;101487.91;5070894;28;12163;-68
2024/01/19 04:29:32;;;;;;;;;0.00;0.00;;;;;1.22;83.10;101494.19;5067582;28;12233;-67
2024/01/19 04:31:59;;;;;;;;;0.00;0.00;;;;;1.18;83.24;101500.69;5062818;28;11472;-67
2024/01/19 04:34:26;;;;;;;;;0.00;0.00;;;;;1.16;83.00;101494.63;5054117;28;11510;-68
2024/01/19 04:36:52;;;;;;;;;0.00;0.00;;;;;1.15;83.15;101499.09;5069960;28;11470;-68
2024/01/19 04:39:19;;;;;;;;;0.00;0.00;;;;;1.13;83.56;101501.00;5062733;28;11478;-67
2024/01/19 04:41:45;;;;;;;;;0.00;0.00;;;;;1.11;83.45;101497.66;5086637;28;12218;-68
2024/01/19 04:44:12;;;;;;;;;0.00;0.00;;;;;1.11;84.09;101499.47;5063683;28;11501;-68
2024/01/19 04:46:38;;;;;;;;;0.50;0.00;;;;;1.15;84.27;101500.91;5071956;28;11464;-68
2024/01/19 04:49:08;;;;;;;;;0.00;0.00;;;;;1.15;83.90;101499.09;5066674;28;11529;-66
2024/01/19 04:51:35;;;;;;;;;0.75;0.75;;;;;1.15;84.04;101501.75;5063291;28;12199;-68
2024/01/19 04:54:01;;;;;;;;;0.00;0.00;;;;;1.14;84.29;101507.19;5071709;28;11532;-66
2024/01/19 04:56:28;;;;;;;;;1.00;1.00;;;;;1.14;84.42;101502.72;5068701;28;11500;-66
2024/01/19 04:58:55;;;;;;;;;0.00;0.00;;;;;1.15;84.73;101514.16;5070732;28;11550;-67
2024/01/19 05:01:21;;;;;;;;;0.00;0.00;;;;;1.14;84.44;101520.44;5058331;28;11481;-68
2024/01/19 05:03:48;;;;;;;;;0.00;0.00;;;;;1.17;84.79;101522.84;5069085;28;12197;-68
2024/01/19 05:06:15;;;;;;;;;1.75;0.00;;;;;1.16;84.86;101531.75;5071507;28;12287;-68
2024/01/19 05:08:41;;;;;;;;;0.00;0.00;;;;;1.16;84.89;101537.06;5052999;28;11507;-67
2024/01/19 05:11:13;;;;;;;;;0.00;0.00;;;;;1.10;84.60;101538.38;5065562;28;11510;-67
2024/01/19 05:13:41;;;;;;;;;0.00;0.00;;;;;1.12;85.26;101543.56;5069106;28;11477;-68
2024/01/19 05:16:08;;;;;;;;;0.00;0.00;;;;;1.13;85.29;101550.53;5069295;28;11489;-68
2024/01/19 05:18:35;;;;;;;;;0.00;0.00;;;;;1.10;84.69;101554.28;5063467;28;11496;-67
2024/01/19 05:21:02;;;;;;;;;0.75;0.00;;;;;1.07;85.34;101551.88;5057270;28;11468;-67
2024/01/19 05:23:29;;;;;;;;;0.00;0.00;;;;;1.08;85.28;101553.56;5054088;28;11574;-67
2024/01/19 05:25:56;;;;;;;;;0.00;0.00;;;;;1.08;85.02;101568.63;5068836;28;12210;-68
2024/01/19 05:28:22;;;;;;;;;1.00;0.00;;;;;1.12;85.10;101570.06;5070663;28;11461;-67
2024/01/19 05:30:49;;;;;;;;;0.00;0.00;;;;;1.16;85.34;101569.72;5069045;28;11476;-67
2024/01/19 05:33:15;;;;;;;;;0.00;0.00;;;;;1.18;85.15;101569.63;5086197;28;11506;-67
2024/01/19 05:35:42;;;;;;;;;0.00;0.00;;;;;1.22;84.84;101571.09;5069350;28;11467;-68
2024/01/19 05:38:09;;;;;;;;;0.00;0.00;;;;;1.24;84.61;101569.16;5060425;28;11481;-67
2024/01/19 05:40:35;;;;;;;;;1.00;0.50;;;;;1.26;84.79;101566.38;5082731;28;12213;-67
2024/01/19 05:43:02;;;;;;;;;0.00;0.00;;;;;1.26;84.38;101582.28;5065765;28;11494;-68
2024/01/19 05:45:29;;;;;;;;;0.00;0.00;;;;;1.24;84.21;101580.59;5062681;28;11469;-67
2024/01/19 05:47:55;;;;;;;;;0.00;0.00;;;;;1.26;83.90;101590.25;5060668;28;11491;-68
2024/01/19 05:50:22;;;;;;;;;0.00;0.00;;;;;1.23;83.76;101594.00;5069442;28;11515;-68
2024/01/19 05:52:49;;;;;;;;;1.25;1.25;;;;;1.21;83.96;101599.38;5061259;28;11635;-67
2024/01/19 05:55:15;;;;;;;;;0.00;0.00;;;;;1.19;83.75;101603.13;5057155;28;12214;-67
2024/01/19 05:57:42;;;;;;;;;0.00;0.00;;;;;1.18;83.52;101601.44;5070027;28;11477;-68
2024/01/19 06:00:09;;;;;;;;;0.00;0.00;;;;;1.16;83.79;101609.50;5069431;28;12066;-67
2024/01/19 06:02:39;;;;;;;;;0.00;0.00;;;;;1.13;83.69;101608.88;5067382;28;11458;-67
2024/01/19 06:05:06;;;;;;;;;0.00;0.00;;;;;1.10;83.75;101611.78;5062315;28;11461;-66
2024/01/19 06:07:34;;;;;;;;;0.00;0.00;;;;;1.03;83.89;101621.16;5064037;28;11491;-66
2024/01/19 06:10:00;;;;;;;;;0.50;0.00;;;;;1.02;83.52;101625.59;5068497;28;11478;-67
2024/01/19 06:12:27;;;;;;;;;0.00;0.00;;;;;1.01;83.58;101625.69;5069985;28;11484;-67
2024/01/19 06:14:54;;;;;;;;;0.00;0.00;;;;;0.98;83.74;101632.94;5063221;28;11472;-67
2024/01/19 06:17:21;;;;;;;;;0.00;0.00;;;;;0.95;83.71;101643.75;5050305;28;12343;-67
2024/01/19 06:19:47;;;;;;;;;1.00;0.00;;;;;0.92;83.75;101643.97;5049206;28;11541;-67
2024/01/19 06:22:14;;;;;;;;;0.00;0.00;;;;;0.91;84.13;101644.94;5050340;28;11501;-66
2024/01/19 06:24:41;;;;;;;;;0.00;0.00;;;;;0.90;84.01;101651.19;5064918;28;11481;-66
2024/01/19 06:27:07;;;;;;;;;0.00;0.00;;;;;0.89;84.18;101653.94;5067856;28;11572;-67
2024/01/19 06:29:34;;;;;;;;;0.00;0.00;;;;;0.89;84.30;101654.81;5069226;28;11600;-66
2024/01/19 06:32:01;;;;;;;;;0.00;0.00;;;;;0.89;84.45;101662.78;5069989;28;11479;-67
2024/01/19 06:34:28;;;;;;;;;0.00;0.00;;;;;0.88;84.13;101653.09;5065767;28;11526;-68
2024/01/19 06:36:55;;;;;;;;;1.00;1.00;;;;;0.87;84.14;101648.78;5065492;28;11662;-67
2024/01/19 06:39:21;;;;;;;;;0.00;0.00;;;;;0.86;84.55;101659.50;5065450;28;11486;-67
2024/01/19 06:41:48;;;;;;;;;0.00;0.00;;;;;0.84;84.21;101662.22;5066198;28;11573;-67
2024/01/19 06:44:15;;;;;;;;;0.00;0.00;;;;;0.84;84.65;101669.34;5068724;28;11586;-67
2024/01/19 06:46:45;;;;;;;;;0.00;0.00;;;;;0.81;84.28;101675.72;5069810;28;11608;-66
2024/01/19 06:49:13;;;;;;;;;0.00;0.00;;;;;0.80;84.50;101684.63;5055912;28;11477;-67
2024/01/19 06:51:40;;;;;;;;;0.00;0.00;;;;;0.84;84.70;101686.09;5063953;28;11457;-67
2024/01/19 06:54:07;;;;;;;;;1.50;0.00;;;;;0.86;84.81;101686.84;5064049;28;11561;-67
2024/01/19 06:56:33;;;;;;;;;0.00;0.00;;;;;0.87;84.73;101680.56;5067674;28;11496;-67
2024/01/19 06:59:01;;;;;;;;;1.00;0.00;;;;;0.89;84.74;101683.09;5050233;28;11496;-68
2024/01/19 07:01:27;;;;;;;;;0.00;0.00;;;;;0.88;84.73;101689.38;5053436;28;12215;-67
2024/01/19 07:03:54;;;;;;;;;0.00;0.00;;;;;0.89;84.99;101691.94;5067141;28;11576;-68
2024/01/19 07:06:20;;;;;;;;;0.50;0.00;;;;;0.87;84.79;101698.28;5063093;28;11476;-68
2024/01/19 07:08:47;;;;;;;;;0.00;0.00;;;;;0.85;84.72;101710.78;5069814;28;11508;-68
2024/01/19 07:11:14;;;;;;;;;0.00;0.00;;;;;0.82;84.97;101717.16;5068148;28;11472;-68
2024/01/19 07:13:41;;;;;;;;;1.00;0.00;;;;;0.82;84.92;101722.47;5068257;28;11589;-67
2024/01/19 07:16:08;;;;;;;;;0.00;0.00;;;;;0.79;84.95;101729.78;5067945;28;12217;-67
2024/01/19 07:18:36;;;;;;;;;1.00;0.00;;;;;0.78;85.06;101725.47;5054540;28;11489;-67
2024/01/19 07:21:03;;;;;;;;;0.00;0.00;;;;;0.76;84.92;101733.50;5062276;28;11476;-68
2024/01/19 07:23:30;;;;;;;;;0.25;0.25;;;;;0.78;84.85;101734.25;5068796;28;11486;-67
2024/01/19 07:25:58;;;;;;;;;1.00;1.00;;;;;0.81;85.01;101746.41;5069634;28;12168;-66
2024/01/19 07:28:24;;;;;;;;;0.00;0.00;;;;;0.81;85.76;101730.50;5050640;28;11596;-66
2024/01/19 07:30:51;;;;;;;;;0.00;0.00;;;;;0.83;85.02;101744.50;5069669;28;11475;-67
2024/01/19 07:33:18;;;;;;;;;1.00;0.00;;;;;0.75;85.20;101734.47;5065281;28;11489;-67
2024/01/19 07:35:57;;;;;;;;;0.25;0.25;;;;;0.77;85.07;101753.75;5067401;28;11458;-66
2024/01/19 07:38:24;;;;;;;;;0.50;0.00;;;;;0.75;85.20;101753.00;5068227;28;11480;-67
2024/01/19 07:40:51;;;;;;;;;0.50;0.00;;;;;0.75;85.55;101753.00;5068263;28;11493;-68
2024/01/19 07:43:18;;;;;;;;;0.00;0.00;;;;;0.75;85.08;101763.59;5064478;28;11541;-66
2024/01/19 07:45:44;;;;;;;;;0.00;0.00;;;;;0.76;85.18;101753.84;5049109;28;11462;-67
2024/01/19 07:48:11;;;;;;;;;0.00;0.00;;;;;0.78;85.56;101760.75;5071877;28;11507;-67
2024/01/19 07:50:37;;;;;;;;;0.00;0.00;;;;;0.81;85.47;101763.19;5061603;28;11505;-67
2024/01/19 07:53:04;;;;;;;;;1.00;1.00;;;;;0.85;85.87;101761.16;5070754;28;11490;-67
2024/01/19 07:55:31;;;;;;;;;1.00;0.50;;;;;0.84;85.83;101762.09;5065081;28;11576;-70
2024/01/19 07:57:57;;;;;;;;;5.00;4.00;;;;;0.88;85.33;101772.38;5053801;28;11569;-67
2024/01/19 08:00:25;;;;;;;;;0.75;0.75;;;;;0.88;85.39;101775.03;5070879;28;12200;-68
2024/01/19 08:02:51;;;;;;;;;6.00;0.75;;;;;0.89;85.33;101775.88;5067071;28;11561;-68
2024/01/19 08:05:18;;;;;;;;;2.00;1.00;;;;;0.88;85.18;101777.69;5069257;28;11515;-68
2024/01/19 08:07:45;;;;;;;;;3.00;3.00;;;;;0.86;85.15;101776.13;5071204;28;11497;-70
2024/01/19 08:10:11;;;;;;;;;1.25;0.00;;;;;0.88;86.02;101777.69;5069766;28;12175;-68
2024/01/19 08:12:39;;;;;;;;;2.00;1.00;;;;;0.91;85.57;101781.94;5051751;28;11462;-69
2024/01/19 08:15:08;;;;;;;;;1.25;1.25;;;;;0.88;85.78;101780.31;5068119;28;11467;-69
2024/01/19 08:17:34;;;;;;;;;1.00;1.00;;;;;0.85;85.48;101787.66;5071632;28;11487;-69
2024/01/19 08:20:02;;;;;;;;;2.00;2.00;;;;;0.96;88.13;101787.75;5070937;28;11483;-69
2024/01/19 08:22:28;;;;;;;;;1.75;0.25;;;;;1.03;86.25;101796.13;5067493;28;11468;-69
2024/01/19 08:24:55;;;;;;;;;3.50;2.00;;;;;0.98;86.03;101802.59;5070080;28;11500;-69
2024/01/19 08:27:22;;;;;;;;;1.25;1.25;;;;;0.96;85.45;101799.19;5071570;28;11594;-68
2024/01/19 08:29:48;;;;;;;;;2.00;2.00;;;;;0.95;85.58;101805.47;5062692;28;11577;-68
2024/01/19 08:32:15;;;;;;;;;0.00;0.00;;;;;0.95;85.91;101807.25;5065705;28;11484;-69
2024/01/19 08:34:42;;;;;;;;;3.50;1.75;;;;;0.98;85.67;101815.00;5071349;28;12442;-69
2024/01/19 08:37:09;;;;;;;;;1.00;1.00;;;;;1.01;85.49;101819.22;5068210;28;11594;-69
2024/01/19 08:39:37;;;;;;;;;0.00;0.00;;;;;1.00;85.21;101829.00;5057367;28;11525;-68
2024/01/19 08:42:06;;;;;;;;;1.25;0.75;;;;;1.01;85.33;101835.97;5069121;28;11481;-69
2024/01/19 08:44:33;;;;;;;;;1.50;1.00;;;;;1.04;85.19;101840.22;5067329;28;11494;-68
2024/01/19 08:46:59;;;;;;;;;1.00;1.00;;;;;1.10;84.78;101845.97;5058958;28;11569;-69
2024/01/19 08:49:26;;;;;;;;;1.75;1.00;;;;;1.15;85.14;101842.97;5041257;28;11500;-69
2024/01/19 08:51:53;;;;;;;;;1.00;1.00;;;;;1.21;84.40;101843.38;5057380;28;11552;-68
2024/01/19 08:54:20;;;;;;;;;4.00;1.00;;;;;1.27;84.55;101847.41;5061404;28;11723;-69
2024/01/19 08:56:47;;;;;;;;;1.50;1.50;;;;;1.44;86.43;101847.03;5067906;28;11482;-68
2024/01/19 08:59:24;;;;;;;;;1.75;1.75;;;;;1.49;84.79;101842.25;5058855;28;11497;-68
2024/01/19 09:01:55;;;;;;;;;3.00;2.00;;;;;1.48;84.03;101850.31;5085973;28;11551;-67
2024/01/19 09:04:22;;;;;;;;;2.00;2.00;;;;;1.45;83.84;101854.03;5070198;28;11657;-67
2024/01/19 09:06:49;;;;;;;;;1.25;1.25;;;;;1.44;83.76;101857.66;5066094;28;11522;-68
2024/01/19 09:09:15;;;;;;;;;2.50;1.00;;;;;1.44;83.84;101856.81;5062603;28;11481;-67
2024/01/19 09:11:42;;;;;;;;;4.00;2.00;;;;;1.45;83.71;101864.66;5065201;28;11470;-68
2024/01/19 09:14:10;;;;;;;;;3.50;2.00;;;;;1.48;83.62;101861.78;5061680;28;11512;-68
2024/01/19 09:16:44;;;;;;;;;2.00;2.00;;;;;1.55;83.32;101870.16;5059876;28;11612;-67
2024/01/19 09:19:11;;;;;;;;;1.00;1.00;;;;;1.60;83.52;101870.66;5063367;28;11521;-68
2024/01/19 09:21:39;;;;;;;;;3.50;1.75;;;;;1.63;83.04;101865.16;5069572;28;11605;-70
2024/01/19 09:24:06;;;;;;;;;4.00;3.00;;;;;1.62;83.30;101881.16;5063503;28;11511;-68
2024/01/19 09:26:33;;;;;;;;;2.00;2.00;;;;;1.61;83.29;101874.16;5063416;28;11463;-69
2024/01/19 09:29:00;;;;;;;;;2.00;1.00;;;;;1.65;83.52;101880.94;5065195;28;11516;-68
2024/01/19 09:31:27;;;;;;;;;2.00;2.00;;;;;1.68;83.52;101875.44;5061475;28;11486;-68
2024/01/19 09:33:53;;;;;;;;;1.75;1.50;;;;;1.76;83.54;101874.88;5062279;28;11505;-68
2024/01/19 09:36:20;;;;;;;;;7.50;5.75;;;;;1.77;83.46;101869.44;5068801;28;11536;-67
2024/01/19 09:38:47;;;;;;;;;5.00;4.00;;;;;1.88;83.94;101873.97;5058266;28;12247;-67
2024/01/19 09:41:14;;;;;;;;;1.50;1.50;;;;;2.00;83.68;101866.91;5069610;28;11509;-67
2024/01/19 09:43:44;;;;;;;;;2.00;2.00;;;;;2.09;83.85;101874.19;5062018;28;11515;-67
2024/01/19 09:46:21;;;;;;;;;2.00;2.00;;;;;2.14;83.53;101878.19;5067801;28;11514;-67
2024/01/19 09:49:02;;;;;;;;;2.00;2.00;;;;;2.21;83.16;101871.47;5068443;28;12239;-67
2024/01/19 09:51:56;;;;;;;;;3.00;2.00;;;;;2.29;83.21;101876.22;5067695;28;11484;-67
2024/01/19 09:54:33;;;;;;;;;1.00;1.00;;;;;2.34;82.99;101887.34;5058147;28;11632;-67
2024/01/19 09:57:01;;;;;;;;;7.00;2.25;;;;;2.41;83.49;101896.53;5068032;28;11457;-67
2024/01/19 09:59:30;;;;;;;;;4.75;2.00;;;;;2.43;83.50;101891.09;5067297;28;11460;-66
2024/01/19 10:01:57;;;;;;;;;2.00;2.00;;;;;2.47;83.33;101896.09;5064371;28;11549;-67
2024/01/19 10:04:25;;;;;;;;;1.50;1.50;;;;;2.54;83.38;101901.78;5060604;28;11481;-66
2024/01/19 10:06:52;;;;;;;;;4.00;1.50;;;;;2.57;83.13;101906.88;5070446;28;11578;-67
2024/01/19 10:09:20;;;;;;;;;1.25;1.25;;;;;2.58;83.29;101908.56;5069375;28;11733;-67
2024/01/19 10:11:51;;;;;;;;;2.00;2.00;;;;;2.67;83.41;101910.53;5060828;28;11440;-68
2024/01/19 10:14:18;;;;;;;;;2.00;2.00;;;;;2.78;83.56;101909.69;5066798;28;11495;-66
2024/01/19 10:16:44;;;;;;;;;1.25;1.25;;;;;2.86;83.41;101912.63;5067301;28;11531;-65
2024/01/19 10:19:14;;;;;;;;;1.00;1.00;;;;;2.96;83.35;101915.44;5067266;28;11530;-65
2024/01/19 10:21:41;;;;;;;;;2.00;2.00;;;;;3.04;83.21;101918.34;5063988;28;11420;-69
2024/01/19 10:24:14;;;;;;;;;4.00;1.00;;;;;3.16;83.23;101925.38;5057520;28;11554;-66
2024/01/19 10:26:50;;;;;;;;;2.00;2.00;;;;;3.22;82.53;101924.88;5063556;28;11521;-66
2024/01/19 10:29:17;;;;;;;;;3.00;3.00;;;;;3.25;82.61;101926.47;5063141;28;11423;-67
2024/01/19 10:31:50;;;;;;;;;1.00;1.00;;;;;3.35;82.34;101926.59;5068115;28;11444;-67
2024/01/19 10:34:19;;;;;;;;;2.00;2.00;;;;;3.40;81.97;101927.94;5059448;28;11432;-64
2024/01/19 10:36:48;;;;;;;;;2.00;2.00;;;;;3.42;82.01;101925.97;5074205;28;11435;-65
2024/01/19 10:39:18;;;;;;;;;1.00;1.00;;;;;3.43;81.89;101927.66;5065212;28;11439;-67
2024/01/19 10:41:45;;;;;;;;;2.00;2.00;;;;;3.51;81.42;101937.72;5069089;28;12206;-67
2024/01/19 10:44:19;;;;;;;;;1.00;1.00;;;;;3.53;81.60;101938.47;5062835;28;11430;-66
2024/01/19 10:46:49;;;;;;;;;10.50;3.50;;;;;3.50;81.56;101933.38;5065373;28;11564;-65
2024/01/19 10:49:19;;;;;;;;;1.25;1.00;;;;;3.55;81.06;101935.66;5062487;28;11557;-68
2024/01/19 10:51:47;;;;;;;;;2.00;2.00;;;;;3.53;81.17;101942.94;5063948;28;11464;-70
2024/01/19 10:54:24;;;;;;;;;5.00;4.00;;;;;3.50;81.10;101943.16;5047263;28;11472;-66
2024/01/19 10:57:05;;;;;;;;;2.50;2.50;;;;;3.50;80.81;101937.84;5057594;28;12148;-69
2024/01/19 10:59:34;;;;;;;;;5.00;3.50;;;;;3.48;81.08;101932.63;5064660;28;11409;-66
2024/01/19 11:02:03;;;;;;;;;1.75;1.00;;;;;3.50;81.26;101937.84;5062533;28;11418;-68
2024/01/19 11:04:32;;;;;;;;;5.00;5.00;;;;;3.52;80.92;101928.75;5059687;28;11475;-68
2024/01/19 11:06:58;;;;;;;;;4.00;4.00;;;;;3.49;80.58;101942.31;5047561;28;12281;-66
2024/01/19 11:09:26;;;;;;;;;5.00;2.00;;;;;3.53;81.21;101934.94;5070464;28;11613;-70
2024/01/19 11:12:00;;;;;;;;;4.75;4.75;;;;;3.51;81.09;101939.53;5057739;28;11530;-69
2024/01/19 11:14:27;;;;;;;;;5.00;2.50;;;;;3.55;80.89;101933.00;5062156;28;12210;-67
2024/01/19 11:16:56;;;;;;;;;4.50;4.00;;;;;3.54;80.50;101928.66;5069141;28;11492;-69
2024/01/19 11:19:24;;;;;;;;;3.50;3.50;;;;;3.55;80.90;101941.81;5067227;28;11462;-69
2024/01/19 11:21:51;;;;;;;;;8.00;5.00;;;;;3.59;80.17;101939.78;5073850;28;11451;-69
2024/01/19 11:24:21;;;;;;;;;2.00;2.00;;;;;3.69;80.02;101943.41;5073764;28;11455;-70
2024/01/19 11:27:04;;;;;;;;;4.25;2.00;;;;;3.75;80.10;101948.22;5055851;28;11533;-68
2024/01/19 11:29:40;;;;;;;;;4.25;4.25;;;;;3.79;80.16;101952.34;5064847;28;11418;-69
2024/01/19 11:32:07;;;;;;;;;5.00;3.50;;;;;3.82;79.99;101965.41;5066408;28;11527;-69
2024/01/19 11:34:48;;;;;;;;;4.00;2.00;;;;;3.66;79.82;101959.63;5064038;28;12290;-66